Time;durP1;ratioP1;P1;durP2;ratioP2;P2;SDS_P1;SDS_P2;PMS_P1;PMS_P2;Temp;Humidity;BMP_temperature;BMP_pressure;BME280_temperature;BME280_humidity;BME280_pressure;Samples;Min_cycle;Max_cycle;Signal;HPM_P1;HPM_P2
2022/05/15 00:02:05;;;;;;;24.40;6.35;;;9.10;99.90;;;;;;5118239;27;20409;-79
2022/05/15 00:04:30;;;;;;;30.15;7.10;;;9.10;99.90;;;;;;5136509;27;20039;-79
2022/05/15 00:06:56;;;;;;;25.08;6.38;;;9.10;99.90;;;;;;5117159;27;20043;-79
2022/05/15 00:09:22;;;;;;;22.42;5.85;;;9.10;99.90;;;;;;5136267;27;20118;-79
2022/05/15 00:11:48;;;;;;;20.25;6.18;;;9.00;99.90;;;;;;5136357;27;20040;-79
2022/05/15 00:14:14;;;;;;;20.02;5.03;;;9.00;99.90;;;;;;5135399;27;20537;-79
2022/05/15 00:16:40;;;;;;;22.02;6.35;;;9.00;99.90;;;;;;5101039;27;20050;-79
2022/05/15 00:19:06;;;;;;;24.42;6.15;;;9.00;99.90;;;;;;5100609;28;20482;-79
2022/05/15 00:21:32;;;;;;;14.23;5.75;;;9.00;99.90;;;;;;5116404;27;20046;-79
2022/05/15 00:23:59;;;;;;;17.75;5.20;;;8.90;99.90;;;;;;5136089;27;20046;-79
2022/05/15 00:26:25;;;;;;;22.38;6.25;;;9.00;99.90;;;;;;5136046;27;20101;-79
2022/05/15 00:28:52;;;;;;;19.30;5.57;;;9.00;99.90;;;;;;5116642;27;20049;-79
2022/05/15 00:31:18;;;;;;;11.15;3.75;;;9.00;99.90;;;;;;5135831;27;20478;-79
2022/05/15 00:33:44;;;;;;;14.88;4.47;;;8.90;99.90;;;;;;5135865;27;20061;-79
2022/05/15 00:36:11;;;;;;;14.98;3.90;;;8.90;99.90;;;;;;5135086;27;20066;-79
2022/05/15 00:38:37;;;;;;;11.57;3.97;;;8.90;99.90;;;;;;5135762;27;20087;-79
2022/05/15 00:41:03;;;;;;;11.77;3.30;;;8.90;99.90;;;;;;5116652;27;20415;-78
2022/05/15 00:43:39;;;;;;;12.77;3.22;;;8.90;99.90;;;;;;5117247;27;20047;-79
2022/05/15 00:46:09;;;;;;;9.60;3.67;;;8.80;99.90;;;;;;5117463;27;20083;-79
2022/05/15 00:48:35;;;;;;;14.18;4.38;;;8.80;99.90;;;;;;5099378;27;20095;-79
2022/05/15 00:51:08;;;;;;;12.68;3.80;;;8.80;99.90;;;;;;5100124;27;20043;-79
2022/05/15 00:53:35;;;;;;;13.88;4.00;;;8.70;99.90;;;;;;5134985;27;20386;-79
2022/05/15 00:56:02;;;;;;;22.00;4.85;;;8.70;99.90;;;;;;5134621;27;20051;-79
2022/05/15 00:58:36;;;;;;;11.35;3.75;;;8.70;99.90;;;;;;5116937;27;20483;-79
2022/05/15 01:01:04;;;;;;;16.63;4.10;;;8.70;99.90;;;;;;5117003;27;20126;-79
2022/05/15 01:03:29;;;;;;;10.52;3.60;;;8.70;99.90;;;;;;5099055;27;20444;-79
2022/05/15 01:05:56;;;;;;;14.65;4.65;;;8.70;99.90;;;;;;5134752;27;20039;-79
2022/05/15 01:08:27;;;;;;;14.10;4.10;;;8.70;99.90;;;;;;5116779;27;20091;-79
2022/05/15 01:10:55;;;;;;;19.80;5.47;;;8.70;99.90;;;;;;5116263;27;20112;-79
2022/05/15 01:13:22;;;;;;;15.15;4.10;;;8.70;99.90;;;;;;5116757;27;20054;-79
2022/05/15 01:15:49;;;;;;;13.60;4.45;;;8.70;99.90;;;;;;5116763;27;20086;-79
2022/05/15 01:18:23;;;;;;;15.98;4.63;;;8.70;99.90;;;;;;5134018;27;20043;-79
2022/05/15 01:20:53;;;;;;;23.08;7.90;;;8.70;99.90;;;;;;5134965;27;20039;-79
2022/05/15 01:23:19;;;;;;;17.40;4.95;;;8.70;99.90;;;;;;5115971;27;20043;-78
2022/05/15 01:25:44;;;;;;;17.30;5.32;;;8.80;99.90;;;;;;5134806;27;20397;-79
2022/05/15 01:28:18;;;;;;;21.45;5.28;;;8.70;99.90;;;;;;5116361;27;20047;-79
2022/05/15 01:30:48;;;;;;;34.53;6.88;;;8.70;99.90;;;;;;5133697;27;20047;-79
2022/05/15 01:33:14;;;;;;;16.23;5.40;;;8.60;99.90;;;;;;5116355;27;20057;-78
2022/05/15 01:35:40;;;;;;;30.58;6.25;;;8.60;99.90;;;;;;5134552;27;20043;-79
2022/05/15 01:38:07;;;;;;;25.30;5.45;;;8.60;99.90;;;;;;5115611;27;20135;-79
2022/05/15 01:40:33;;;;;;;17.90;6.15;;;8.60;99.90;;;;;;5134811;27;20107;-79
2022/05/15 01:43:00;;;;;;;20.05;6.55;;;8.50;99.90;;;;;;5116334;27;20547;-79
2022/05/15 01:45:26;;;;;;;27.77;7.00;;;8.50;99.90;;;;;;5115470;28;20402;-79
2022/05/15 01:47:52;;;;;;;27.13;7.38;;;8.50;99.90;;;;;;5116119;27;20046;-79
2022/05/15 01:50:18;;;;;;;25.30;7.20;;;8.40;99.90;;;;;;5116009;27;20043;-79
2022/05/15 01:52:45;;;;;;;18.15;6.00;;;8.40;99.90;;;;;;5115270;28;20049;-79
2022/05/15 01:55:12;;;;;;;20.60;5.38;;;8.40;99.90;;;;;;5134185;28;20073;-79
2022/05/15 01:57:37;;;;;;;23.10;6.47;;;8.40;99.90;;;;;;5116139;28;20522;-79
2022/05/15 02:00:06;;;;;;;24.05;6.70;;;8.40;99.90;;;;;;5114840;28;20137;-79
2022/05/15 02:02:32;;;;;;;22.98;6.45;;;8.40;99.90;;;;;;5115955;28;20039;-79
2022/05/15 02:04:58;;;;;;;23.90;7.07;;;8.30;99.90;;;;;;5134508;28;20039;-79
2022/05/15 02:07:24;;;;;;;24.75;7.32;;;8.30;99.90;;;;;;5098447;28;20149;-79
2022/05/15 02:09:50;;;;;;;22.75;6.53;;;8.30;99.90;;;;;;5116041;28;20042;-79
2022/05/15 02:12:16;;;;;;;21.98;6.18;;;8.30;99.90;;;;;;5134362;28;20042;-79
2022/05/15 02:14:42;;;;;;;31.80;8.52;;;8.30;99.90;;;;;;5114888;28;20125;-79
2022/05/15 02:17:07;;;;;;;21.00;7.88;;;8.30;99.90;;;;;;5134180;28;20039;-78
2022/05/15 02:19:33;;;;;;;25.85;7.85;;;8.30;99.90;;;;;;5133116;28;20043;-79
2022/05/15 02:21:59;;;;;;;16.92;6.13;;;8.20;99.90;;;;;;5116186;28;20031;-79
2022/05/15 02:24:25;;;;;;;11.02;4.60;;;8.20;99.90;;;;;;5115813;28;20046;-79
2022/05/15 02:26:51;;;;;;;14.88;5.03;;;8.20;99.90;;;;;;5098026;28;20050;-79
2022/05/15 02:29:18;;;;;;;13.18;4.50;;;8.10;99.90;;;;;;5134024;28;20127;-79
2022/05/15 02:31:43;;;;;;;17.67;5.95;;;8.10;99.90;;;;;;5098742;28;20079;-79
2022/05/15 02:34:09;;;;;;;25.20;5.70;;;8.00;99.90;;;;;;5114711;28;20135;-79
2022/05/15 02:36:35;;;;;;;19.80;6.18;;;7.90;99.90;;;;;;5098796;28;20039;-79
2022/05/15 02:39:01;;;;;;;15.73;5.93;;;7.90;99.90;;;;;;5115731;28;20039;-79
2022/05/15 02:41:27;;;;;;;9.23;4.50;;;7.90;99.90;;;;;;5114589;28;20099;-79
2022/05/15 02:43:53;;;;;;;42.85;3.17;;;7.90;99.90;;;;;;5136184;27;20439;-79
2022/05/15 02:46:19;;;;;;;27.60;7.28;;;7.80;99.90;;;;;;5138094;27;20047;-78
2022/05/15 02:51:29;;;;;;;20.88;6.30;;;7.80;99.90;;;;;;5119794;27;20134;-79
2022/05/15 02:53:58;;;;;;;19.75;5.57;;;7.80;99.90;;;;;;5118884;27;20515;-78
2022/05/15 02:56:29;;;;;;;24.25;7.18;;;7.80;99.90;;;;;;5137089;27;20057;-78
2022/05/15 02:58:56;;;;;;;32.97;9.15;;;7.80;99.90;;;;;;5137740;27;20049;-78
2022/05/15 03:01:21;;;;;;;24.02;6.70;;;7.80;99.90;;;;;;5137781;27;20041;-79
2022/05/15 03:03:47;;;;;;;15.23;4.88;;;7.80;99.90;;;;;;5136876;27;20039;-79
2022/05/15 03:06:14;;;;;;;18.65;6.32;;;7.80;99.90;;;;;;5119295;27;20039;-78
2022/05/15 03:08:45;;;;;;;18.20;6.50;;;7.70;99.90;;;;;;5119153;27;20132;-79
2022/05/15 03:11:11;;;;;;;21.40;6.97;;;7.70;99.90;;;;;;5102292;27;20058;-79
2022/05/15 03:13:38;;;;;;;12.48;4.53;;;7.70;99.90;;;;;;5119217;27;20047;-79
2022/05/15 03:16:05;;;;;;;17.38;6.60;;;7.70;99.90;;;;;;5118098;27;20413;-79
2022/05/15 03:18:31;;;;;;;30.80;7.72;;;7.70;99.90;;;;;;5118986;27;20082;-79
2022/05/15 03:20:56;;;;;;;15.82;6.25;;;7.60;99.90;;;;;;5137299;27;20047;-79
2022/05/15 03:23:22;;;;;;;18.25;7.90;;;7.60;99.90;;;;;;5136381;27;20045;-79
2022/05/15 03:25:48;;;;;;;26.40;8.30;;;7.60;99.90;;;;;;5137263;27;20082;-78
2022/05/15 03:28:13;;;;;;;29.55;9.48;;;7.60;99.90;;;;;;5118719;27;20452;-79
2022/05/15 03:30:41;;;;;;;21.08;7.90;;;7.60;99.90;;;;;;5117701;27;20058;-79
2022/05/15 03:33:08;;;;;;;25.17;7.68;;;7.60;99.90;;;;;;5118956;27;20092;-78
2022/05/15 03:35:34;;;;;;;23.33;7.55;;;7.60;99.90;;;;;;5118485;27;20531;-79
2022/05/15 03:38:01;;;;;;;19.00;6.38;;;7.60;99.90;;;;;;5117716;27;20071;-78
2022/05/15 03:40:27;;;;;;;11.07;4.50;;;7.60;99.90;;;;;;5101627;27;20086;-79
2022/05/15 03:42:53;;;;;;;11.27;4.20;;;7.50;99.90;;;;;;5118466;27;20073;-79
2022/05/15 03:45:19;;;;;;;14.23;4.82;;;7.50;99.90;;;;;;5117632;27;20067;-79
2022/05/15 03:47:51;;;;;;;12.70;4.68;;;7.50;99.90;;;;;;5136774;27;20510;-79
2022/05/15 03:50:18;;;;;;;16.40;5.32;;;7.50;99.90;;;;;;5136756;27;20039;-79
2022/05/15 03:52:44;;;;;;;10.80;4.43;;;7.50;99.90;;;;;;5117297;27;20035;-79
2022/05/15 03:55:11;;;;;;;12.05;4.50;;;7.50;99.90;;;;;;5135921;27;20055;-79
2022/05/15 03:57:37;;;;;;;12.35;4.35;;;7.50;99.90;;;;;;5136375;27;20043;-79
2022/05/15 04:00:06;;;;;;;11.93;4.47;;;7.50;99.90;;;;;;5135754;27;20512;-79
2022/05/15 04:02:32;;;;;;;18.77;5.38;;;7.50;99.90;;;;;;5136362;27;20036;-79
2022/05/15 04:04:57;;;;;;;12.35;4.88;;;7.50;99.90;;;;;;5117936;27;20047;-79
2022/05/15 04:07:23;;;;;;;9.80;3.30;;;7.50;99.90;;;;;;5136253;27;20118;-79
2022/05/15 04:09:49;;;;;;;11.73;2.70;;;7.40;99.90;;;;;;5117897;27;20039;-79
2022/05/15 04:12:15;;;;;;;10.38;3.03;;;7.50;99.90;;;;;;5117434;27;20091;-79
2022/05/15 04:14:41;;;;;;;11.38;4.13;;;7.50;99.90;;;;;;5136093;27;20522;-79
2022/05/15 04:17:07;;;;;;;8.43;2.53;;;7.50;99.90;;;;;;5117882;27;20039;-79
2022/05/15 04:19:38;;;;;;;8.10;2.85;;;7.50;99.90;;;;;;5116884;27;20050;-79
2022/05/15 04:22:05;;;;;;;10.13;2.85;;;7.60;99.90;;;;;;5136042;27;20561;-79
2022/05/15 04:24:35;;;;;;;11.50;3.08;;;7.50;99.90;;;;;;5117611;27;20123;-79
2022/05/15 04:27:01;;;;;;;12.10;4.97;;;7.60;99.90;;;;;;5116629;27;20512;-79
2022/05/15 04:29:28;;;;;;;17.60;4.95;;;7.60;99.90;;;;;;5117594;27;20130;-79
2022/05/15 04:31:55;;;;;;;26.92;6.88;;;7.70;99.90;;;;;;5117500;27;20071;-79
2022/05/15 04:34:26;;;;;;;30.00;7.80;;;7.80;99.90;;;;;;5135056;27;20059;-79
2022/05/15 04:36:52;;;;;;;33.45;7.97;;;7.90;99.90;;;;;;5117359;27;20085;-79
2022/05/15 04:39:19;;;;;;;20.55;6.63;;;8.00;99.90;;;;;;5117461;27;20074;-79
2022/05/15 04:41:45;;;;;;;26.08;7.50;;;8.10;99.90;;;;;;5116512;27;20386;-79
2022/05/15 04:44:11;;;;;;;27.70;7.22;;;8.30;99.90;;;;;;5135652;27;20047;-79
2022/05/15 04:46:37;;;;;;;28.88;7.28;;;8.30;99.90;;;;;;5135603;27;20031;-79
2022/05/15 04:49:03;;;;;;;29.05;7.60;;;8.50;99.90;;;;;;5134747;27;20122;-79
2022/05/15 04:51:30;;;;;;;25.70;7.40;;;8.60;99.90;;;;;;5117168;27;20123;-79
2022/05/15 04:53:55;;;;;;;26.35;7.85;;;8.70;99.90;;;;;;5116546;27;20051;-79
2022/05/15 04:56:22;;;;;;;31.27;8.57;;;8.80;99.90;;;;;;5116388;27;20043;-79
2022/05/15 04:58:48;;;;;;;28.88;7.47;;;9.00;99.90;;;;;;5135462;27;20099;-79
2022/05/15 05:01:14;;;;;;;18.90;8.10;;;9.10;99.90;;;;;;5135042;27;20051;-79
2022/05/15 05:03:40;;;;;;;28.50;8.25;;;9.20;99.90;;;;;;5135023;27;20043;-79
2022/05/15 05:06:06;;;;;;;27.92;9.85;;;9.30;99.90;;;;;;5116388;27;20047;-79
2022/05/15 05:08:32;;;;;;;31.50;8.27;;;9.40;99.90;;;;;;5134391;27;20035;-79
2022/05/15 05:10:58;;;;;;;26.40;6.72;;;9.50;99.90;;;;;;5135147;27;20156;-80
2022/05/15 05:13:24;;;;;;;31.52;7.88;;;9.70;99.90;;;;;;5135227;27;20125;-79
2022/05/15 05:15:50;;;;;;;32.25;8.07;;;9.80;99.90;;;;;;5134024;27;20049;-80
2022/05/15 05:18:17;;;;;;;27.92;6.95;;;9.90;99.90;;;;;;5116777;27;20474;-80
2022/05/15 05:20:44;;;;;;;34.03;9.23;;;10.00;99.90;;;;;;5099855;27;20051;-80
2022/05/15 05:23:11;;;;;;;35.78;8.23;;;10.20;99.90;;;;;;5115837;27;20440;-79
2022/05/15 05:25:37;;;;;;;36.92;8.20;;;10.30;99.90;;;;;;5134921;27;20040;-79
2022/05/15 05:28:03;;;;;;;22.67;8.23;;;10.40;99.90;;;;;;5099308;27;20035;-79
2022/05/15 05:30:29;;;;;;;32.33;8.50;;;10.60;99.90;;;;;;5115535;27;20108;-79
2022/05/15 05:32:55;;;;;;;30.38;8.27;;;10.70;99.90;;;;;;5116346;27;20130;-80
2022/05/15 05:35:23;;;;;;;30.25;8.15;;;10.80;99.90;;;;;;5134668;27;20035;-79
2022/05/15 05:37:50;;;;;;;39.55;8.85;;;10.90;99.90;;;;;;5134225;27;20126;-79
2022/05/15 05:40:16;;;;;;;33.47;8.20;;;11.10;99.90;;;;;;5099582;27;20043;-80
2022/05/15 05:42:41;;;;;;;32.75;7.72;;;11.20;99.90;;;;;;5116435;27;20066;-80
2022/05/15 05:45:08;;;;;;;30.73;8.20;;;11.40;99.90;;;;;;5115290;27;20081;-80
2022/05/15 05:47:34;;;;;;;31.80;8.35;;;11.50;99.90;;;;;;5116159;27;20099;-80
2022/05/15 05:50:00;;;;;;;42.83;8.50;;;11.60;99.90;;;;;;5134494;27;20038;-80
2022/05/15 05:52:26;;;;;;;39.88;8.88;;;11.80;99.90;;;;;;5133903;27;20046;-79
2022/05/15 05:54:53;;;;;;;34.35;8.70;;;11.90;99.90;;;;;;5134180;27;20062;-79
2022/05/15 05:57:19;;;;;;;32.35;8.40;;;12.00;99.90;;;;;;5116174;28;20402;-78
2022/05/15 05:59:45;;;;;;;27.88;7.97;;;12.10;99.90;;;;;;5115486;28;20355;-78
2022/05/15 06:02:11;;;;;;;22.75;7.13;;;12.20;99.90;;;;;;5116000;28;20045;-78
2022/05/15 06:04:40;;;;;;;33.47;9.05;;;12.30;99.90;;;;;;5098345;28;20139;-79
2022/05/15 06:07:12;;;;;;;28.58;7.90;;;12.40;99.90;;;;;;5116277;28;20412;-79
2022/05/15 06:09:45;;;;;;;30.42;8.63;;;12.60;99.90;;;;;;5116092;28;20051;-79
2022/05/15 06:12:13;;;;;;;30.55;8.07;;;12.70;99.90;;;;;;5115052;28;20051;-79
2022/05/15 06:14:39;;;;;;;36.53;8.15;;;12.80;99.90;;;;;;5098983;28;20609;-78
2022/05/15 06:17:06;;;;;;;30.60;8.27;;;12.90;99.90;;;;;;5116609;27;20054;-78
2022/05/15 06:19:32;;;;;;;32.20;7.15;;;13.00;99.90;;;;;;5102248;27;20047;-78
2022/05/15 06:21:58;;;;;;;32.08;7.93;;;13.10;99.90;;;;;;5138593;27;20085;-79
2022/05/15 06:24:25;;;;;;;36.50;8.00;;;13.10;99.90;;;;;;5138304;27;20043;-79
2022/05/15 06:26:52;;;;;;;30.20;8.07;;;13.30;99.90;;;;;;5119046;27;20043;-80
2022/05/15 06:29:18;;;;;;;29.45;6.57;;;13.30;99.90;;;;;;5119822;27;20055;-80
2022/05/15 06:31:44;;;;;;;32.97;8.27;;;13.40;99.90;;;;;;5138354;27;20159;-79
2022/05/15 06:34:10;;;;;;;21.85;7.55;;;13.60;99.90;;;;;;5102180;27;20047;-79
2022/05/15 06:36:36;;;;;;;31.05;6.80;;;13.70;99.90;;;;;;5120063;27;20611;-79
2022/05/15 06:39:03;;;;;;;27.85;7.05;;;13.80;99.90;;;;;;5119954;27;20371;-79
2022/05/15 06:41:29;;;;;;;38.17;8.00;;;13.90;99.90;;;;;;5118966;27;20115;-79
2022/05/15 06:43:54;;;;;;;21.38;6.32;;;14.00;99.90;;;;;;5137684;27;20489;-79
2022/05/15 06:46:21;;;;;;;28.63;7.13;;;14.10;99.90;;;;;;5119546;27;20062;-79
2022/05/15 06:48:47;;;;;;;30.27;7.07;;;14.20;99.90;;;;;;5118998;27;20399;-79
2022/05/15 06:51:16;;;;;;;28.65;6.90;;;14.20;99.90;;;;;;5137984;27;20039;-79
2022/05/15 06:53:43;;;;;;;26.73;7.22;;;14.30;99.90;;;;;;5119246;27;20053;-79
2022/05/15 06:58:53;;;;;;;25.95;6.32;;;14.50;99.90;;;;;;5137693;27;20043;-80
2022/05/15 07:01:19;;;;;;;29.02;7.70;;;14.60;99.90;;;;;;5118686;27;20043;-79
2022/05/15 07:03:45;;;;;;;32.15;9.45;;;14.70;99.90;;;;;;5119312;27;20043;-79
2022/05/15 07:06:11;;;;;;;24.17;6.70;;;14.80;99.90;;;;;;5137650;27;20088;-80
2022/05/15 07:08:39;;;;;;;22.70;6.85;;;14.80;99.90;;;;;;5136906;27;20039;-80
2022/05/15 07:11:05;;;;;;;26.55;7.18;;;14.90;99.90;;;;;;5118986;27;20039;-80
2022/05/15 07:13:32;;;;;;;25.98;7.30;;;15.00;99.90;;;;;;5137486;27;20049;-80
2022/05/15 07:15:58;;;;;;;23.35;6.05;;;15.10;99.90;;;;;;5118084;27;20129;-80
2022/05/15 07:18:24;;;;;;;27.70;6.78;;;15.20;99.90;;;;;;5119375;27;20453;-79
2022/05/15 07:20:51;;;;;;;26.92;6.57;;;15.20;99.90;;;;;;5118974;27;20134;-79
2022/05/15 07:23:18;;;;;;;24.77;6.43;;;15.30;99.90;;;;;;5118047;27;20050;-80
2022/05/15 07:25:44;;;;;;;32.08;7.55;;;15.40;99.90;;;;;;5101931;27;20100;-79
2022/05/15 07:28:10;;;;;;;22.73;6.28;;;15.50;99.90;;;;;;5137117;27;20470;-79
2022/05/15 07:30:36;;;;;;;23.48;6.55;;;15.60;99.90;;;;;;5135966;27;20043;-80
2022/05/15 07:33:01;;;;;;;28.48;6.32;;;15.60;99.90;;;;;;5137087;27;20043;-80
2022/05/15 07:35:28;;;;;;;17.73;5.40;;;15.70;99.90;;;;;;5136914;27;20051;-80
2022/05/15 07:37:54;;;;;;;23.58;5.57;;;15.80;99.90;;;;;;5117693;27;20505;-79
2022/05/15 07:40:21;;;;;;;30.13;7.32;;;15.90;99.90;;;;;;5101410;27;20043;-80
2022/05/15 07:42:47;;;;;;;24.55;6.30;;;16.00;99.90;;;;;;5118837;27;20421;-79
2022/05/15 07:45:14;;;;;;;21.83;5.70;;;16.10;99.90;;;;;;5100981;27;20398;-79
2022/05/15 07:47:40;;;;;;;25.10;5.85;;;16.10;99.90;;;;;;5101233;27;20047;-79
2022/05/15 07:50:07;;;;;;;21.60;6.05;;;16.20;99.90;;;;;;5117456;27;20039;-79
2022/05/15 07:52:33;;;;;;;19.88;4.93;;;16.30;99.90;;;;;;5118509;27;20492;-79
2022/05/15 07:54:59;;;;;;;29.08;5.85;;;16.30;99.90;;;;;;5118069;27;20094;-79
2022/05/15 07:57:25;;;;;;;24.00;5.88;;;16.40;99.90;;;;;;5100465;27;20541;-79
2022/05/15 07:59:52;;;;;;;24.77;5.63;;;16.50;99.90;;;;;;5118294;27;20047;-80
2022/05/15 08:02:19;;;;;;;18.08;4.68;;;16.60;99.90;;;;;;5136567;27;20404;-80
2022/05/15 08:10:14;;;;;;;22.83;4.88;;;16.80;99.90;;;;;;5136543;27;20155;-79
2022/05/15 08:12:39;;;;;;;23.17;5.43;;;16.90;99.90;;;;;;5116915;27;20175;-83
2022/05/15 08:15:08;;;;;;;19.00;4.47;;;16.90;99.90;;;;;;5117601;27;20047;-78
2022/05/15 08:17:34;;;;;;;20.30;4.93;;;17.00;99.90;;;;;;5118031;27;20039;-79
2022/05/15 08:25:28;;;;;;;17.73;4.85;;;17.20;99.90;;;;;;5135359;27;20102;-80
2022/05/15 08:27:54;;;;;;;17.38;4.50;;;17.30;99.90;;;;;;5117463;27;20042;-80
2022/05/15 08:30:20;;;;;;;20.13;5.32;;;17.30;99.90;;;;;;5136032;27;20049;-80
2022/05/15 08:32:46;;;;;;;18.30;4.72;;;17.40;99.90;;;;;;5135188;27;20047;-79
2022/05/15 08:35:12;;;;;;;23.45;5.65;;;17.40;99.90;;;;;;5135975;27;20051;-79
2022/05/15 08:37:40;;;;;;;18.67;4.82;;;17.40;99.90;;;;;;5135606;27;20050;-80
2022/05/15 08:40:06;;;;;;;27.15;5.63;;;17.50;99.90;;;;;;5134563;27;20122;-79
2022/05/15 08:42:46;;;;;;;24.65;5.13;;;17.60;99.90;;;;;;5116831;27;20047;-81
2022/05/15 08:45:16;;;;;;;22.38;4.70;;;17.60;99.90;;;;;;5117477;27;20124;-80
2022/05/15 08:47:45;;;;;;;20.73;5.13;;;17.60;99.90;;;;;;5134761;27;20050;-79
2022/05/15 08:50:15;;;;;;;23.33;5.00;;;17.60;99.90;;;;;;5135623;27;20053;-78
2022/05/15 08:53:14;;;;;;;22.38;5.00;;;17.70;99.90;;;;;;5135609;27;20118;-81
2022/05/15 08:55:42;;;;;;;22.67;5.47;;;17.70;99.90;;;;;;5115865;27;20082;-80
2022/05/15 08:58:14;;;;;;;21.08;4.45;;;17.60;99.90;;;;;;5117343;27;20042;-79
2022/05/15 09:00:51;;;;;;;21.52;4.28;;;17.60;99.90;;;;;;5134627;27;20067;-79
2022/05/15 09:03:18;;;;;;;22.23;5.45;;;17.60;99.90;;;;;;5135239;27;20121;-80
2022/05/15 09:06:19;;;;;;;28.42;5.50;;;17.60;99.90;;;;;;5135179;27;20050;-79
2022/05/15 09:08:45;;;;;;;18.58;5.57;;;17.70;99.90;;;;;;5134095;27;20494;-83
2022/05/15 09:11:14;;;;;;;22.60;5.53;;;17.80;99.90;;;;;;5116816;27;20054;-81
2022/05/15 09:13:46;;;;;;;22.92;6.22;;;17.80;99.90;;;;;;5116967;27;20074;-79
2022/05/15 09:16:21;;;;;;;26.02;5.45;;;17.90;99.90;;;;;;5115875;27;20143;-79
2022/05/15 09:18:46;;;;;;;21.40;5.40;;;18.00;99.90;;;;;;5135076;27;20039;-79
2022/05/15 09:21:15;;;;;;;21.67;5.65;;;18.00;99.90;;;;;;5116916;27;20382;-79
2022/05/15 09:23:50;;;;;;;21.90;4.85;;;18.00;99.90;;;;;;5134513;27;20114;-81
2022/05/15 09:26:40;;;;;;;21.75;5.00;;;18.10;99.90;;;;;;5116315;27;20061;-79
2022/05/15 09:29:15;;;;;;;20.58;5.53;;;18.10;99.90;;;;;;5098975;28;20035;-79
2022/05/15 09:31:44;;;;;;;;;;;18.10;99.90;;;;;;5116837;27;20503;-78
2022/05/15 09:34:31;;;;;;;19.65;4.97;;;18.20;99.90;;;;;;5116420;27;20419;-79
2022/05/15 09:39:48;;;;;;;22.60;5.47;;;18.30;99.90;;;;;;5134556;27;20504;-78
2022/05/15 09:45:07;;;;;;;26.48;5.47;;;18.40;99.90;;;;;;5134532;27;20051;-79
2022/05/15 09:47:37;;;;;;;22.00;4.82;;;18.50;99.90;;;;;;5116223;27;20074;-78
2022/05/15 09:50:04;;;;;;;15.80;4.65;;;18.50;99.90;;;;;;5133724;27;20142;-79
2022/05/15 09:52:32;;;;;;;21.95;5.35;;;18.60;99.90;;;;;;5134661;27;20047;-80
2022/05/15 09:55:09;;;;;;;21.15;5.18;;;18.70;99.90;;;;;;5115813;27;20090;-79
2022/05/15 09:57:36;;;;;;;19.27;5.05;;;18.80;99.90;;;;;;5133762;28;20043;-79
2022/05/15 10:00:09;;;;;;;23.67;5.03;;;18.80;99.90;;;;;;5134866;28;20039;-79
2022/05/15 10:02:40;;;;;;;20.90;5.75;;;18.80;99.90;;;;;;5134641;28;20123;-81
2022/05/15 10:05:29;;;;;;;19.58;4.60;;;18.80;99.90;;;;;;5115041;28;20118;-81
2022/05/15 10:08:01;;;;;;;20.20;5.60;;;18.90;99.90;;;;;;5116250;28;20047;-79
2022/05/15 10:10:34;;;;;;;16.98;4.82;;;19.00;99.90;;;;;;5099021;28;20134;-78
2022/05/15 10:13:26;;;;;;;16.00;4.05;;;19.10;99.90;;;;;;5133573;28;20125;-78
2022/05/15 10:15:54;;;;;;;16.25;4.65;;;19.10;99.40;;;;;;5134401;28;20448;-82
2022/05/15 10:18:30;;;;;;;17.70;4.43;;;19.10;99.90;;;;;;5115241;28;20394;-81
2022/05/15 10:20:56;;;;;;;20.05;4.85;;;19.20;99.90;;;;;;5115952;28;20047;-80
2022/05/15 10:23:29;;;;;;;23.00;5.45;;;19.30;99.90;;;;;;5134381;28;20047;-80
2022/05/15 10:26:02;;;;;;;20.25;4.95;;;19.40;99.90;;;;;;5115189;28;20450;-79
2022/05/15 10:28:46;;;;;;;21.08;4.97;;;19.50;99.90;;;;;;5134292;28;20043;-80
2022/05/15 10:31:21;;;;;;;18.98;5.22;;;19.50;99.90;;;;;;5115785;28;20058;-78
2022/05/15 10:33:50;;;;;;;21.52;4.85;;;19.60;98.80;;;;;;5115235;28;20417;-80
2022/05/15 10:36:38;;;;;;;18.58;5.47;;;19.60;99.80;;;;;;5115871;28;20444;-79
2022/05/15 10:39:30;;;;;;;16.95;4.35;;;19.60;99.60;;;;;;5133149;28;20043;-83
2022/05/15 10:42:33;;;;;;;22.52;5.10;;;19.70;98.80;;;;;;5115766;28;20043;-81
2022/05/15 10:45:25;;;;;;;20.45;4.55;;;19.80;99.10;;;;;;5101564;28;20063;-80
2022/05/15 10:48:12;;;;;;;14.95;4.75;;;19.90;99.10;;;;;;5133375;28;20496;-81
2022/05/15 10:51:06;;;;;;;17.00;5.15;;;20.00;97.50;;;;;;5115694;28;20039;-80
2022/05/15 10:59:27;;;;;;;17.95;4.88;;;20.00;97.40;;;;;;5115766;28;20096;-80
2022/05/15 11:02:11;;;;;;;19.52;4.68;;;20.00;97.40;;;;;;5133207;28;20092;-80
2022/05/15 11:04:43;;;;;;;17.60;4.80;;;20.00;97.40;;;;;;5100277;27;20436;-78
2022/05/15 11:07:23;;;;;;;18.27;4.53;;;20.10;95.40;;;;;;5136916;27;20091;-80
2022/05/15 11:10:23;;;;;;;16.17;4.45;;;20.10;95.40;;;;;;5137570;27;20039;-80
2022/05/15 11:13:12;;;;;;;20.23;4.53;;;20.20;92.80;;;;;;5089453;27;20047;-80
2022/05/15 11:16:11;;;;;;;20.73;4.60;;;20.30;94.00;;;;;;5136538;27;20043;-79
2022/05/15 11:19:12;;;;;;;23.23;4.43;;;20.40;93.10;;;;;;5137538;27;20047;-79
2022/05/15 11:22:05;;;;;;;18.55;4.88;;;20.50;95.00;;;;;;5136454;27;20566;-79
2022/05/15 11:24:31;;;;;;;21.35;4.80;;;20.60;94.00;;;;;;5137348;27;20049;-80
2022/05/15 11:27:07;;;;;;;17.02;4.43;;;20.60;92.30;;;;;;5118692;27;20118;-79
2022/05/15 11:29:39;;;;;;;17.02;4.50;;;20.60;91.10;;;;;;5136402;27;20082;-78
2022/05/15 11:32:32;;;;;;;18.48;3.70;;;20.60;90.50;;;;;;5137196;27;20046;-79
2022/05/15 11:35:10;;;;;;;14.90;3.97;;;20.60;84.80;;;;;;5137025;27;20035;-80
2022/05/15 11:37:44;;;;;;;15.00;4.05;;;20.60;86.20;;;;;;5118634;27;20074;-79
2022/05/15 11:40:27;;;;;;;20.00;4.72;;;20.60;84.30;;;;;;5101884;27;20039;-80
2022/05/15 11:42:53;;;;;;;17.40;3.72;;;20.50;83.60;;;;;;5117697;27;20512;-82
2022/05/15 11:45:30;;;;;;;22.13;4.03;;;20.50;88.70;;;;;;5118728;27;20039;-79
2022/05/15 11:48:13;;;;;;;17.02;5.10;;;20.60;84.70;;;;;;5136928;27;20072;-80
2022/05/15 11:50:52;;;;;;;17.73;5.63;;;20.70;88.10;;;;;;5136026;27;20035;-80
2022/05/15 11:53:43;;;;;;;15.02;4.40;;;20.70;88.70;;;;;;5136844;27;20039;-79
2022/05/15 11:56:20;;;;;;;14.13;4.13;;;20.70;87.80;;;;;;5136522;27;20039;-79
2022/05/15 11:58:59;;;;;;;18.08;4.32;;;20.70;82.40;;;;;;5118218;27;20050;-80
2022/05/15 12:01:25;;;;;;;17.95;4.28;;;20.80;78.60;;;;;;5118246;27;20478;-81
2022/05/15 12:03:54;;;;;;;17.45;4.10;;;20.80;79.70;;;;;;5135688;27;20042;-79
2022/05/15 12:06:44;;;;;;;9.75;3.78;;;20.90;81.90;;;;;;5136635;27;20035;-79
2022/05/15 12:09:20;;;;;;;15.32;3.58;;;21.00;81.70;;;;;;5136427;27;20043;-80
2022/05/15 12:11:51;;;;;;;14.80;3.08;;;21.00;79.10;;;;;;5117174;27;20039;-79
2022/05/15 12:14:26;;;;;;;17.05;3.50;;;21.00;76.10;;;;;;5101236;27;20382;-79
2022/05/15 12:17:03;;;;;;;15.50;4.45;;;21.00;73.80;;;;;;5100622;27;20045;-80
2022/05/15 12:19:35;;;;;;;14.63;3.55;;;21.00;75.80;;;;;;5116938;27;20135;-81
2022/05/15 12:22:13;;;;;;;15.82;4.90;;;21.10;79.00;;;;;;5117696;27;20051;-79
2022/05/15 12:24:45;;;;;;;16.90;4.20;;;21.20;78.50;;;;;;5100568;27;20039;-80
2022/05/15 12:27:20;;;;;;;18.58;4.30;;;21.20;77.30;;;;;;5101228;27;20043;-81
2022/05/15 12:29:53;;;;;;;13.30;3.20;;;21.20;77.80;;;;;;5136132;27;20031;-79
2022/05/15 12:32:37;;;;;;;14.75;3.70;;;21.20;78.50;;;;;;5135200;27;20046;-81
2022/05/15 12:35:06;;;;;;;17.98;4.63;;;21.20;78.00;;;;;;5135936;27;20107;-79
2022/05/15 12:37:48;;;;;;;22.67;3.83;;;21.30;78.60;;;;;;5135891;27;20078;-80
2022/05/15 12:40:15;;;;;;;18.00;5.25;;;21.30;78.40;;;;;;5116850;27;20057;-81
2022/05/15 12:42:43;;;;;;;15.85;3.83;;;21.30;79.60;;;;;;5135874;27;20047;-79
2022/05/15 12:45:16;;;;;;;15.23;3.90;;;21.30;77.70;;;;;;5135724;27;20532;-80
2022/05/15 12:47:42;;;;;;;18.55;3.63;;;21.40;75.30;;;;;;5116819;27;20062;-79
2022/05/15 12:50:19;;;;;;;13.63;4.32;;;21.40;75.90;;;;;;5117194;27;20043;-80
2022/05/15 12:52:52;;;;;;;17.00;4.20;;;21.40;75.20;;;;;;5117179;27;20031;-81
2022/05/15 12:55:28;;;;;;;16.75;4.32;;;21.50;76.40;;;;;;5116669;27;20054;-79
2022/05/15 12:57:56;;;;;;;17.08;4.20;;;21.50;76.40;;;;;;5117122;27;20061;-80
2022/05/15 13:00:31;;;;;;;17.45;3.70;;;21.50;78.00;;;;;;5134578;27;20053;-80
2022/05/15 13:03:04;;;;;;;15.35;4.18;;;21.50;78.90;;;;;;5135169;27;20591;-80
2022/05/15 13:05:35;;;;;;;19.08;5.43;;;21.50;78.00;;;;;;5116608;27;20104;-80
2022/05/15 13:08:04;;;;;;;13.50;3.70;;;21.50;75.60;;;;;;5116182;27;20127;-80
2022/05/15 13:10:32;;;;;;;13.85;4.20;;;21.50;76.60;;;;;;5116983;27;20479;-80
2022/05/15 13:13:11;;;;;;;16.40;4.18;;;21.50;78.30;;;;;;5116675;27;20045;-79
2022/05/15 13:15:37;;;;;;;17.73;4.40;;;21.60;77.20;;;;;;5115799;27;20494;-79
2022/05/15 13:18:09;;;;;;;15.65;3.35;;;21.60;76.80;;;;;;5135166;27;20049;-82
2022/05/15 13:20:47;;;;;;;12.98;4.18;;;21.70;75.30;;;;;;5116792;27;20059;-80
2022/05/15 13:23:13;;;;;;;11.48;3.35;;;21.70;72.20;;;;;;5135054;27;20043;-79